DLZ weather

Dalanzadgad Airport
Dalanzadgad, Ömnögovi, Mongolia

Public forecast

Using degrees Celsius for public forecast. Weather courtesy of forecast.io.

Closest aviation weather report (METAR) to Dalanzadgad Airport

Report is more than 6 hours old.

Closest report is Wuhai Airport, 251.5 nm (465.9 km) SSE. Retrieved 2013/09/01 09:00 UTC (6 years ago):

ZBUH 010900Z 06004MPS 030V100 9999 FEW033 26/04 Q1014 NOSIG

Closest aviation forecast (TAF) to Dalanzadgad Airport

Closest forecast is Chinggis Khaan International Airport, 273.4 nm (506.3 km) NNE. Retrieved 2019/12/15 06:40 UTC (4 hours ago):

TAF ZMUB 150440Z 1506/1612 VRB02MPS 6000 BKN100 TXM09/1507Z TNM22/1523Z TEMPO 1516/1606 -SN BKN080